Time;durP1;ratioP1;P1;durP2;ratioP2;P2;SDS_P1;SDS_P2;PMS_P1;PMS_P2;Temp;Humidity;BMP_temperature;BMP_pressure;BME280_temperature;BME280_humidity;BME280_pressure;Samples;Min_cycle;Max_cycle;Signal;HPM_P1;HPM_P2
2023/10/24 00:00:24;;;;;;;0.95;0.68;;;10.90;99.90;;;;;;4406163;32;20066;-59
2023/10/24 00:02:49;;;;;;;0.85;0.52;;;10.90;99.90;;;;;;4407934;32;20066;-61
2023/10/24 00:05:15;;;;;;;0.35;0.35;;;10.90;99.90;;;;;;4406150;32;20435;-60
2023/10/24 00:07:40;;;;;;;0.30;0.30;;;10.90;99.90;;;;;;4405046;32;20070;-60
2023/10/24 00:10:06;;;;;;;0.60;0.60;;;10.90;99.90;;;;;;4407146;32;20421;-61
2023/10/24 00:12:31;;;;;;;0.77;0.73;;;10.90;99.90;;;;;;4409307;32;20066;-60
2023/10/24 00:14:57;;;;;;;0.43;0.43;;;10.90;99.90;;;;;;4407411;32;20098;-60
2023/10/24 00:17:23;;;;;;;0.55;0.55;;;11.00;99.90;;;;;;4401576;32;20089;-60
2023/10/24 00:19:49;;;;;;;0.32;0.32;;;11.00;99.90;;;;;;4386069;32;20062;-61
2023/10/24 00:22:15;;;;;;;0.50;0.50;;;11.00;99.90;;;;;;4395872;32;20078;-59
2023/10/24 00:24:40;;;;;;;0.55;0.50;;;11.00;99.90;;;;;;4409158;32;20090;-60
2023/10/24 00:27:06;;;;;;;0.40;0.40;;;11.00;99.90;;;;;;4406100;32;20189;-60
2023/10/24 00:29:31;;;;;;;0.40;0.40;;;11.00;99.90;;;;;;4402921;32;20107;-61
2023/10/24 00:31:57;;;;;;;0.47;0.47;;;11.00;99.90;;;;;;4405844;32;20092;-61
2023/10/24 00:34:22;;;;;;;1.73;0.88;;;11.00;99.90;;;;;;4409263;32;20077;-61
2023/10/24 00:36:48;;;;;;;0.82;0.82;;;11.00;99.90;;;;;;4402872;32;20081;-60
2023/10/24 00:39:13;;;;;;;0.62;0.62;;;11.00;99.90;;;;;;4402868;32;20157;-60
2023/10/24 00:41:39;;;;;;;0.40;0.40;;;11.00;99.90;;;;;;4408620;32;20090;-60
2023/10/24 00:44:06;;;;;;;1.98;0.70;;;10.90;99.90;;;;;;4411621;32;20562;-60
2023/10/24 00:46:33;;;;;;;0.50;0.50;;;10.90;99.90;;;;;;4404284;32;20514;-59
2023/10/24 00:48:59;;;;;;;0.50;0.50;;;10.90;99.90;;;;;;4402023;32;20102;-60
2023/10/24 00:51:25;;;;;;;0.55;0.55;;;11.00;99.90;;;;;;4405912;32;20600;-60
2023/10/24 00:53:51;;;;;;;1.35;0.82;;;11.00;99.90;;;;;;4410453;32;20121;-61
2023/10/24 00:56:17;;;;;;;1.25;0.60;;;11.00;99.90;;;;;;4405717;32;20077;-61
2023/10/24 00:58:44;;;;;;;5.97;0.73;;;11.00;99.90;;;;;;4400428;32;20204;-60
2023/10/24 01:01:12;;;;;;;0.50;0.50;;;11.00;99.90;;;;;;4407642;32;20136;-61
2023/10/24 01:03:38;;;;;;;0.57;0.57;;;11.00;99.90;;;;;;4391463;32;20102;-60
2023/10/24 01:06:05;;;;;;;0.60;0.60;;;11.10;99.90;;;;;;4386287;32;20082;-60
2023/10/24 01:08:31;;;;;;;0.30;0.30;;;11.00;99.90;;;;;;4403920;32;20525;-60
2023/10/24 01:10:56;;;;;;;0.47;0.47;;;11.00;99.90;;;;;;4408706;32;20066;-61
2023/10/24 01:13:22;;;;;;;1.48;0.73;;;11.00;99.90;;;;;;4409442;32;20131;-60
2023/10/24 01:15:47;;;;;;;0.45;0.45;;;11.00;99.90;;;;;;4407582;32;20189;-61
2023/10/24 01:18:13;;;;;;;0.70;0.70;;;11.00;99.90;;;;;;4398722;32;20058;-59
2023/10/24 01:20:39;;;;;;;0.60;0.60;;;11.00;99.90;;;;;;4408511;32;20093;-61
2023/10/24 01:23:08;;;;;;;0.80;0.73;;;11.00;99.90;;;;;;4408398;32;20127;-60
2023/10/24 01:25:38;;;;;;;0.90;0.80;;;10.90;99.90;;;;;;4396120;32;20553;-60
2023/10/24 01:28:05;;;;;;;0.40;0.40;;;11.00;99.90;;;;;;4407047;32;20077;-60
2023/10/24 01:30:30;;;;;;;1.35;0.93;;;11.00;99.90;;;;;;4406965;32;20477;-61
2023/10/24 01:32:56;;;;;;;0.70;0.57;;;11.00;99.90;;;;;;4409534;32;20208;-60
2023/10/24 01:35:21;;;;;;;2.87;1.42;;;11.00;99.90;;;;;;4401639;32;20870;-59
2023/10/24 01:37:47;;;;;;;0.62;0.62;;;11.00;99.90;;;;;;4399807;32;20155;-60
2023/10/24 01:40:12;;;;;;;1.35;0.62;;;11.00;99.90;;;;;;4391081;32;20099;-61
2023/10/24 01:42:38;;;;;;;0.90;0.90;;;11.10;99.90;;;;;;4409364;32;20094;-59
2023/10/24 01:45:05;;;;;;;0.40;0.40;;;11.10;99.90;;;;;;4409323;32;20115;-60
2023/10/24 01:47:30;;;;;;;0.40;0.40;;;11.10;99.90;;;;;;4405270;32;20089;-60
2023/10/24 01:49:56;;;;;;;0.70;0.70;;;11.10;99.90;;;;;;4408771;32;20070;-60
2023/10/24 01:52:21;;;;;;;5.97;0.98;;;11.20;99.90;;;;;;4408286;32;20073;-61
2023/10/24 01:54:47;;;;;;;0.37;0.37;;;11.20;99.90;;;;;;4401005;32;20411;-60
2023/10/24 01:57:14;;;;;;;0.50;0.50;;;11.10;99.90;;;;;;4401545;32;20085;-60
2023/10/24 01:59:39;;;;;;;5.47;2.55;;;11.20;99.90;;;;;;4403542;32;20076;-62
2023/10/24 02:02:05;;;;;;;0.65;0.65;;;11.20;99.90;;;;;;4409629;32;20065;-61
2023/10/24 02:04:30;;;;;;;1.55;0.73;;;11.20;99.90;;;;;;4404534;32;20070;-60
2023/10/24 02:06:56;;;;;;;0.43;0.43;;;11.20;99.90;;;;;;4405481;32;20094;-61
2023/10/24 02:09:21;;;;;;;0.50;0.50;;;11.20;99.90;;;;;;4407062;32;21419;-60
2023/10/24 02:11:47;;;;;;;3.50;0.70;;;11.20;99.90;;;;;;4410931;32;20085;-60
2023/10/24 02:14:13;;;;;;;0.98;0.80;;;11.20;99.90;;;;;;4407368;32;20078;-60
2023/10/24 02:16:38;;;;;;;0.50;0.50;;;11.20;99.90;;;;;;4403054;32;20089;-60
2023/10/24 02:19:04;;;;;;;1.65;1.35;;;11.30;99.90;;;;;;4406052;32;20144;-59
2023/10/24 02:21:29;;;;;;;0.55;0.55;;;11.30;99.90;;;;;;4407592;32;20490;-60
2023/10/24 02:23:55;;;;;;;0.80;0.80;;;11.30;99.90;;;;;;4409680;32;20065;-61
2023/10/24 02:26:20;;;;;;;0.65;0.60;;;11.20;99.90;;;;;;4407554;32;20203;-60
2023/10/24 02:28:46;;;;;;;0.40;0.40;;;11.20;99.90;;;;;;4402822;32;20074;-60
2023/10/24 02:31:11;;;;;;;0.70;0.70;;;11.20;99.90;;;;;;4404170;32;20542;-60
2023/10/24 02:33:38;;;;;;;0.50;0.50;;;11.20;99.90;;;;;;4408522;32;20086;-59
2023/10/24 02:36:14;;;;;;;0.98;0.95;;;11.30;99.90;;;;;;4404138;32;20074;-61
2023/10/24 02:38:39;;;;;;;0.70;0.70;;;11.20;99.90;;;;;;4403222;32;20073;-61
2023/10/24 02:41:04;;;;;;;0.52;0.52;;;11.20;99.90;;;;;;4406522;32;20144;-61
2023/10/24 02:43:30;;;;;;;0.65;0.65;;;11.30;99.90;;;;;;4408898;32;20283;-61
2023/10/24 02:46:02;;;;;;;0.75;0.60;;;11.30;99.90;;;;;;4394027;32;20098;-61
2023/10/24 02:48:28;;;;;;;0.30;0.30;;;11.20;99.90;;;;;;4401959;32;20101;-60
2023/10/24 02:50:54;;;;;;;0.55;0.55;;;11.20;99.90;;;;;;4409107;32;20166;-60
2023/10/24 02:53:20;;;;;;;1.05;0.65;;;11.20;99.90;;;;;;4407273;32;20559;-60
2023/10/24 02:55:47;;;;;;;3.42;0.62;;;11.20;99.90;;;;;;4403976;32;20085;-62
2023/10/24 02:58:12;;;;;;;0.77;0.77;;;11.20;99.90;;;;;;4402839;32;20124;-60
2023/10/24 03:00:38;;;;;;;1.25;0.70;;;11.30;99.90;;;;;;4405668;32;20065;-60
2023/10/24 03:03:03;;;;;;;0.57;0.57;;;11.30;99.90;;;;;;4407924;32;20080;-61
2023/10/24 03:05:29;;;;;;;0.55;0.55;;;11.30;99.90;;;;;;4406543;32;20077;-60
2023/10/24 03:07:54;;;;;;;1.05;0.80;;;11.40;99.90;;;;;;4403135;32;20065;-60
2023/10/24 03:10:20;;;;;;;0.62;0.62;;;11.40;99.90;;;;;;4405638;32;20132;-59
2023/10/24 03:12:45;;;;;;;0.65;0.60;;;11.40;99.90;;;;;;4407441;32;20081;-61
2023/10/24 03:15:11;;;;;;;0.40;0.40;;;11.40;99.90;;;;;;4406679;32;20077;-60
2023/10/24 03:17:37;;;;;;;1.37;0.68;;;11.30;99.90;;;;;;4400680;32;21341;-59
2023/10/24 03:20:04;;;;;;;0.70;0.70;;;11.30;99.90;;;;;;4407792;32;20109;-61
2023/10/24 03:22:30;;;;;;;0.60;0.60;;;11.30;99.90;;;;;;4408311;32;20561;-60
2023/10/24 03:24:56;;;;;;;0.98;0.88;;;11.30;99.90;;;;;;4406172;32;20069;-59
2023/10/24 03:27:21;;;;;;;0.70;0.70;;;11.30;99.90;;;;;;4403362;32;20078;-61
2023/10/24 03:29:47;;;;;;;0.65;0.65;;;11.30;99.90;;;;;;4407930;32;20094;-61
2023/10/24 03:32:13;;;;;;;0.70;0.70;;;11.30;99.90;;;;;;4407061;32;20078;-61
2023/10/24 03:34:39;;;;;;;0.43;0.43;;;11.30;99.90;;;;;;4405457;32;20069;-61
2023/10/24 03:37:05;;;;;;;0.93;0.62;;;11.30;99.90;;;;;;4399717;32;20103;-61
2023/10/24 03:39:30;;;;;;;0.55;0.55;;;11.30;99.90;;;;;;4402326;32;20538;-61
2023/10/24 03:41:56;;;;;;;0.80;0.80;;;11.30;99.90;;;;;;4408856;32;20069;-61
2023/10/24 03:44:23;;;;;;;8.32;1.80;;;11.30;99.90;;;;;;4408793;32;20087;-61
2023/10/24 03:46:49;;;;;;;0.80;0.80;;;11.40;99.90;;;;;;4407252;32;20533;-60
2023/10/24 03:49:14;;;;;;;7.25;0.68;;;11.40;99.90;;;;;;4408007;32;20101;-61
2023/10/24 03:51:40;;;;;;;1.05;0.93;;;11.30;99.90;;;;;;4407191;32;20077;-61
2023/10/24 03:54:05;;;;;;;0.65;0.62;;;11.30;99.90;;;;;;4405476;32;20564;-61
2023/10/24 03:56:32;;;;;;;0.60;0.60;;;11.30;99.90;;;;;;4403325;32;20086;-61
2023/10/24 03:58:58;;;;;;;0.50;0.50;;;11.30;99.90;;;;;;4400777;32;20109;-62
2023/10/24 04:01:23;;;;;;;0.73;0.73;;;11.30;99.90;;;;;;4407437;32;20089;-61
2023/10/24 04:03:49;;;;;;;0.50;0.50;;;11.40;99.90;;;;;;4407040;32;20061;-61
2023/10/24 04:06:14;;;;;;;0.73;0.73;;;11.40;99.90;;;;;;4406329;32;20078;-61
2023/10/24 04:08:40;;;;;;;1.30;1.17;;;11.30;99.90;;;;;;4402619;32;20097;-61
2023/10/24 04:11:15;;;;;;;0.95;0.90;;;11.30;99.90;;;;;;4405799;32;20103;-60
2023/10/24 04:13:42;;;;;;;2.17;0.70;;;11.30;99.90;;;;;;4405109;32;20136;-60
2023/10/24 04:16:08;;;;;;;0.80;0.80;;;11.30;99.90;;;;;;4405085;32;20077;-59
2023/10/24 04:18:33;;;;;;;0.60;0.60;;;11.30;99.90;;;;;;4401946;32;20090;-61
2023/10/24 04:20:58;;;;;;;0.80;0.80;;;11.30;99.90;;;;;;4403372;32;20090;-61
2023/10/24 04:23:24;;;;;;;0.70;0.70;;;11.20;99.90;;;;;;4407126;32;20120;-61
2023/10/24 04:25:50;;;;;;;0.50;0.50;;;11.30;99.90;;;;;;4406150;32;20173;-61
2023/10/24 04:28:15;;;;;;;0.80;0.80;;;11.20;99.90;;;;;;4403985;32;20062;-61
2023/10/24 04:30:41;;;;;;;3.28;0.68;;;11.20;99.90;;;;;;4406584;32;20070;-61
2023/10/24 04:33:07;;;;;;;0.70;0.70;;;11.20;99.90;;;;;;4403501;32;20102;-61
2023/10/24 04:35:40;;;;;;;3.87;1.58;;;11.20;99.90;;;;;;4402813;32;20148;-61
2023/10/24 04:38:06;;;;;;;7.12;2.45;;;11.10;99.90;;;;;;4399727;32;20082;-60
2023/10/24 04:40:31;;;;;;;0.75;0.75;;;11.20;99.90;;;;;;4405371;32;20074;-61
2023/10/24 04:42:57;;;;;;;2.42;0.82;;;11.20;99.90;;;;;;4406403;32;20097;-60
2023/10/24 04:45:22;;;;;;;0.60;0.60;;;11.10;99.90;;;;;;4405960;32;20980;-60
2023/10/24 04:47:48;;;;;;;1.90;1.12;;;11.20;99.90;;;;;;4406910;32;20070;-60
2023/10/24 04:50:13;;;;;;;1.17;0.70;;;11.20;99.90;;;;;;4402822;32;20074;-61
2023/10/24 04:52:39;;;;;;;0.88;0.60;;;11.20;99.90;;;;;;4408088;32;20092;-60
2023/10/24 04:55:05;;;;;;;0.70;0.70;;;11.20;99.90;;;;;;4403418;32;20145;-61
2023/10/24 04:57:31;;;;;;;1.02;0.98;;;11.20;99.90;;;;;;4401829;32;20641;-60
2023/10/24 04:59:58;;;;;;;0.77;0.77;;;11.20;99.90;;;;;;4402970;32;20129;-61
2023/10/24 05:02:23;;;;;;;0.40;0.40;;;11.20;99.90;;;;;;4407472;32;20570;-62
2023/10/24 05:04:49;;;;;;;3.47;1.00;;;11.10;99.90;;;;;;4405881;32;20086;-62
2023/10/24 05:07:14;;;;;;;1.10;0.95;;;11.10;99.90;;;;;;4404634;32;20608;-61
2023/10/24 05:09:39;;;;;;;0.70;0.70;;;11.10;99.90;;;;;;4402899;32;20149;-60
2023/10/24 05:12:06;;;;;;;1.95;1.40;;;11.10;99.90;;;;;;4406116;32;20078;-60
2023/10/24 05:14:31;;;;;;;1.05;0.95;;;11.10;99.90;;;;;;4407176;32;20073;-62
2023/10/24 05:16:56;;;;;;;0.70;0.70;;;11.10;99.90;;;;;;4402252;32;20188;-61
2023/10/24 05:19:22;;;;;;;5.68;1.02;;;11.10;99.90;;;;;;4407516;32;20114;-62
2023/10/24 05:21:47;;;;;;;0.75;0.75;;;11.20;99.90;;;;;;4409139;32;20473;-61
2023/10/24 05:24:13;;;;;;;0.77;0.77;;;11.20;99.90;;;;;;4407885;32;20511;-60
2023/10/24 05:26:38;;;;;;;2.15;1.00;;;11.20;99.90;;;;;;4407485;32;20173;-60
2023/10/24 05:29:04;;;;;;;1.75;0.80;;;11.20;99.90;;;;;;4402391;32;20085;-60
2023/10/24 05:31:29;;;;;;;4.22;0.88;;;11.20;99.90;;;;;;4407184;32;20089;-60
2023/10/24 05:33:55;;;;;;;1.95;0.98;;;11.20;99.90;;;;;;4406844;32;20073;-60
2023/10/24 05:36:20;;;;;;;1.55;0.82;;;11.20;99.90;;;;;;4403284;32;20102;-59
2023/10/24 05:38:46;;;;;;;0.70;0.70;;;11.20;99.90;;;;;;4403855;32;20053;-61
2023/10/24 05:41:11;;;;;;;1.98;1.15;;;11.20;99.90;;;;;;4408492;32;20124;-60
2023/10/24 05:43:39;;;;;;;1.30;0.88;;;11.20;99.90;;;;;;4408479;32;20065;-61
2023/10/24 05:46:05;;;;;;;0.73;0.70;;;11.20;99.90;;;;;;4409286;32;20538;-61
2023/10/24 05:48:31;;;;;;;0.93;0.90;;;11.20;99.90;;;;;;4394599;32;20436;-61
2023/10/24 05:50:56;;;;;;;2.42;1.45;;;11.20;99.90;;;;;;4409080;32;20081;-61
2023/10/24 05:53:22;;;;;;;1.40;1.10;;;11.20;99.90;;;;;;4410875;32;20065;-59
2023/10/24 05:55:47;;;;;;;0.60;0.60;;;11.20;99.90;;;;;;4406571;32;20094;-61
2023/10/24 05:58:13;;;;;;;0.90;0.90;;;11.20;99.90;;;;;;4401721;32;20178;-61
2023/10/24 06:00:38;;;;;;;0.93;0.93;;;11.20;99.90;;;;;;4407434;32;20124;-61
2023/10/24 06:03:04;;;;;;;6.10;1.05;;;11.10;99.90;;;;;;4408326;32;20732;-60
2023/10/24 06:05:29;;;;;;;1.80;0.90;;;11.20;99.90;;;;;;4407033;32;20098;-61
2023/10/24 06:07:55;;;;;;;1.00;0.82;;;11.10;99.90;;;;;;4404958;32;20069;-61
2023/10/24 06:10:20;;;;;;;0.70;0.70;;;11.20;99.90;;;;;;4408410;32;20093;-60
2023/10/24 06:12:46;;;;;;;1.67;1.12;;;11.20;99.90;;;;;;4410463;32;20058;-62
2023/10/24 06:15:11;;;;;;;0.70;0.70;;;11.20;99.90;;;;;;4408957;32;20106;-60
2023/10/24 06:17:38;;;;;;;10.43;1.85;;;11.20;99.90;;;;;;4402412;32;20082;-61
2023/10/24 06:20:04;;;;;;;0.52;0.52;;;11.10;99.90;;;;;;4406816;32;20076;-61
2023/10/24 06:22:29;;;;;;;0.75;0.75;;;11.20;99.90;;;;;;4409560;32;20167;-61
2023/10/24 06:24:56;;;;;;;1.10;0.95;;;11.20;99.90;;;;;;4409622;32;21234;-61
2023/10/24 06:27:22;;;;;;;1.35;0.82;;;11.20;99.90;;;;;;4403722;32;20062;-61
2023/10/24 06:29:47;;;;;;;5.40;0.70;;;11.20;99.90;;;;;;4407958;32;20537;-60
2023/10/24 06:32:13;;;;;;;2.20;0.98;;;11.20;99.90;;;;;;4411373;32;20075;-62
2023/10/24 06:34:38;;;;;;;0.70;0.70;;;11.20;99.90;;;;;;4406254;32;20069;-61
2023/10/24 06:37:04;;;;;;;0.82;0.77;;;11.20;99.90;;;;;;4399480;32;20096;-61
2023/10/24 06:39:29;;;;;;;0.52;0.52;;;11.30;99.90;;;;;;4403668;32;20498;-60
2023/10/24 06:41:55;;;;;;;3.37;1.15;;;11.30;99.90;;;;;;4406052;32;20053;-62
2023/10/24 06:44:22;;;;;;;1.75;1.00;;;11.30;99.90;;;;;;4405388;32;20098;-62
2023/10/24 06:46:47;;;;;;;0.70;0.70;;;11.30;99.90;;;;;;4402684;32;20135;-62
2023/10/24 06:49:12;;;;;;;0.65;0.65;;;11.30;99.90;;;;;;4394479;32;20564;-62
2023/10/24 06:51:38;;;;;;;4.28;1.02;;;11.30;99.90;;;;;;4407629;32;20105;-62
2023/10/24 06:54:04;;;;;;;0.40;0.40;;;11.30;99.90;;;;;;4406975;32;20136;-62
2023/10/24 06:56:29;;;;;;;1.42;0.80;;;11.30;99.90;;;;;;4403413;32;20090;-61
2023/10/24 06:58:55;;;;;;;0.60;0.60;;;11.40;99.90;;;;;;4400753;32;20620;-62
2023/10/24 07:01:20;;;;;;;3.65;0.98;;;11.40;99.90;;;;;;4408888;32;20073;-62
2023/10/24 07:03:47;;;;;;;2.37;0.90;;;11.40;99.90;;;;;;4409361;32;20070;-61
2023/10/24 07:06:12;;;;;;;2.50;1.33;;;11.40;99.90;;;;;;4404797;32;20518;-61
2023/10/24 07:08:40;;;;;;;1.45;1.20;;;11.40;99.90;;;;;;4402389;32;20093;-60
2023/10/24 07:11:05;;;;;;;1.30;1.10;;;11.40;99.90;;;;;;4404335;32;20081;-61
2023/10/24 07:13:31;;;;;;;1.35;1.23;;;11.40;99.90;;;;;;4406135;32;20121;-61
2023/10/24 07:15:56;;;;;;;0.68;0.68;;;11.50;99.90;;;;;;4409155;32;20078;-62
2023/10/24 07:18:22;;;;;;;1.98;0.62;;;11.50;99.90;;;;;;4402014;32;20092;-62
2023/10/24 07:20:47;;;;;;;0.90;0.90;;;11.50;99.90;;;;;;4408493;32;20439;-61
2023/10/24 07:23:14;;;;;;;0.70;0.70;;;11.50;99.90;;;;;;4408883;32;20086;-61
2023/10/24 07:25:39;;;;;;;0.90;0.60;;;11.50;99.90;;;;;;4407039;32;20082;-62
2023/10/24 07:28:05;;;;;;;1.33;1.23;;;11.50;99.90;;;;;;4402011;32;20525;-61
2023/10/24 07:30:31;;;;;;;0.73;0.73;;;11.60;99.90;;;;;;4407293;32;20073;-61
2023/10/24 07:32:57;;;;;;;1.33;0.90;;;11.60;99.90;;;;;;4407316;32;20081;-61
2023/10/24 07:35:23;;;;;;;0.68;0.68;;;11.60;99.90;;;;;;4403345;32;20065;-62
2023/10/24 07:37:48;;;;;;;10.82;1.45;;;11.60;99.90;;;;;;4398712;32;20093;-61
2023/10/24 07:40:14;;;;;;;2.35;0.90;;;11.60;99.90;;;;;;4404267;32;20204;-61
2023/10/24 07:42:40;;;;;;;0.60;0.60;;;11.70;99.90;;;;;;4408659;32;20089;-62
2023/10/24 07:45:06;;;;;;;1.37;1.17;;;11.70;99.90;;;;;;4406225;32;20085;-63
2023/10/24 07:47:31;;;;;;;0.55;0.55;;;11.70;99.90;;;;;;4406321;32;20073;-61
2023/10/24 07:49:59;;;;;;;2.92;1.20;;;11.70;99.90;;;;;;4404504;32;20120;-62
2023/10/24 07:52:24;;;;;;;0.98;0.65;;;11.70;99.90;;;;;;4406586;32;20093;-63
2023/10/24 07:54:49;;;;;;;0.70;0.70;;;11.70;99.90;;;;;;4405289;32;20550;-62
2023/10/24 07:57:15;;;;;;;0.60;0.60;;;11.60;99.90;;;;;;4400564;32;20100;-62
2023/10/24 07:59:40;;;;;;;0.80;0.80;;;11.70;99.90;;;;;;4405504;32;20078;-61
2023/10/24 08:02:06;;;;;;;0.73;0.73;;;11.70;99.90;;;;;;4407287;32;20086;-62
2023/10/24 08:04:32;;;;;;;1.25;0.82;;;11.70;99.90;;;;;;4403899;32;20106;-62
2023/10/24 08:06:59;;;;;;;0.40;0.40;;;11.70;99.90;;;;;;4404804;32;20120;-63
2023/10/24 08:09:24;;;;;;;0.57;0.57;;;11.70;99.90;;;;;;4406653;32;20100;-63
2023/10/24 08:11:49;;;;;;;2.80;1.20;;;11.70;99.90;;;;;;4406432;32;20662;-62
2023/10/24 08:14:15;;;;;;;0.47;0.47;;;11.70;99.90;;;;;;4407891;32;20102;-63
2023/10/24 08:16:41;;;;;;;1.45;0.85;;;11.70;99.90;;;;;;4402023;32;20183;-62
2023/10/24 08:19:06;;;;;;;1.42;0.80;;;11.70;99.90;;;;;;4405235;32;20334;-63
2023/10/24 08:21:32;;;;;;;1.02;0.98;;;11.70;99.90;;;;;;4406198;32;20446;-61
2023/10/24 08:23:57;;;;;;;33.55;2.65;;;11.70;99.90;;;;;;4408227;32;20094;-63
2023/10/24 08:26:23;;;;;;;4.10;1.02;;;11.80;99.90;;;;;;4405046;32;20082;-63
2023/10/24 08:28:48;;;;;;;2.10;1.02;;;11.80;99.90;;;;;;4405406;32;20089;-63
2023/10/24 08:31:14;;;;;;;0.90;0.77;;;11.80;99.90;;;;;;4406795;32;20082;-63
2023/10/24 08:33:39;;;;;;;1.42;0.90;;;11.90;99.90;;;;;;4391602;32;20074;-62
2023/10/24 08:36:05;;;;;;;3.10;0.77;;;11.90;99.90;;;;;;4401775;32;20137;-61
2023/10/24 08:38:30;;;;;;;2.72;0.85;;;11.90;99.90;;;;;;4397939;32;20073;-62
2023/10/24 08:40:56;;;;;;;0.52;0.52;;;11.90;99.90;;;;;;4405732;32;20103;-63
2023/10/24 08:43:22;;;;;;;0.60;0.60;;;11.90;99.90;;;;;;4405377;32;20065;-62
2023/10/24 08:45:50;;;;;;;2.25;0.93;;;11.90;99.90;;;;;;4407299;32;20070;-63
2023/10/24 08:48:16;;;;;;;0.60;0.60;;;12.00;99.90;;;;;;4403261;32;20522;-63
2023/10/24 08:50:42;;;;;;;0.55;0.55;;;12.00;99.90;;;;;;4400361;32;20082;-62
2023/10/24 08:53:10;;;;;;;6.07;0.98;;;12.00;99.90;;;;;;4407745;32;20518;-62
2023/10/24 08:55:37;;;;;;;6.37;1.10;;;12.00;99.90;;;;;;4407666;32;20541;-62
2023/10/24 08:58:02;;;;;;;5.28;1.42;;;12.00;99.90;;;;;;4400774;32;20076;-61
2023/10/24 09:00:28;;;;;;;2.70;1.15;;;12.10;99.90;;;;;;4410113;32;20071;-62
2023/10/24 09:02:55;;;;;;;2.30;1.42;;;12.10;99.90;;;;;;4409061;32;20554;-62
2023/10/24 09:05:25;;;;;;;0.55;0.55;;;12.20;99.90;;;;;;4400826;32;20089;-61
2023/10/24 09:07:50;;;;;;;4.37;1.42;;;12.20;99.90;;;;;;4406606;32;20566;-62
2023/10/24 09:10:16;;;;;;;1.37;1.00;;;12.20;99.90;;;;;;4410475;32;20078;-62
2023/10/24 09:12:42;;;;;;;0.95;0.70;;;12.20;99.90;;;;;;4409590;32;20082;-62
2023/10/24 09:15:09;;;;;;;2.33;1.27;;;12.20;99.90;;;;;;4404665;32;20184;-63
2023/10/24 09:17:36;;;;;;;0.37;0.37;;;12.20;99.90;;;;;;4387469;32;20086;-61
2023/10/24 09:20:03;;;;;;;0.77;0.77;;;12.30;99.90;;;;;;4408489;32;20131;-63
2023/10/24 09:22:30;;;;;;;1.40;1.25;;;12.30;99.90;;;;;;4409563;32;20086;-62
2023/10/24 09:24:57;;;;;;;0.88;0.88;;;12.30;99.90;;;;;;4409341;32;20525;-62
2023/10/24 09:27:24;;;;;;;0.65;0.57;;;12.30;99.90;;;;;;4404422;32;20106;-61
2023/10/24 09:29:50;;;;;;;1.65;0.75;;;12.30;99.90;;;;;;4408399;32;20439;-61
2023/10/24 09:32:16;;;;;;;1.30;0.88;;;12.30;99.90;;;;;;4396026;32;20098;-62
2023/10/24 09:34:43;;;;;;;1.58;0.98;;;12.30;99.90;;;;;;4406482;32;20062;-61
2023/10/24 09:37:10;;;;;;;1.87;1.05;;;12.40;99.90;;;;;;4400293;32;20088;-62
2023/10/24 09:39:52;;;;;;;1.23;0.80;;;12.40;99.90;;;;;;4405540;32;20515;-61
2023/10/24 09:42:24;;;;;;;0.68;0.68;;;12.40;99.90;;;;;;4408089;32;20502;-62
2023/10/24 09:44:52;;;;;;;0.95;0.70;;;12.40;99.90;;;;;;4409133;32;21214;-61
2023/10/24 09:47:18;;;;;;;0.77;0.77;;;12.40;99.90;;;;;;4407645;32;20074;-62
2023/10/24 09:49:45;;;;;;;2.58;1.08;;;12.50;99.90;;;;;;4408981;32;20066;-61
2023/10/24 09:52:11;;;;;;;1.33;1.15;;;12.50;99.90;;;;;;4409902;32;21211;-62
2023/10/24 09:54:39;;;;;;;1.87;1.42;;;12.50;99.90;;;;;;4405762;32;20074;-62
2023/10/24 09:57:05;;;;;;;7.28;2.33;;;12.60;99.90;;;;;;4402118;32;20086;-62
2023/10/24 09:59:31;;;;;;;0.98;0.93;;;12.50;99.90;;;;;;4404531;32;20074;-61
2023/10/24 10:01:58;;;;;;;0.80;0.80;;;12.50;99.90;;;;;;4408386;32;20576;-60
2023/10/24 10:04:25;;;;;;;4.37;1.42;;;12.50;99.90;;;;;;4403710;32;20081;-61
2023/10/24 10:06:53;;;;;;;7.57;2.12;;;12.50;99.90;;;;;;4405781;32;20118;-60
2023/10/24 10:09:19;;;;;;;1.25;0.93;;;12.50;99.90;;;;;;4407804;32;20123;-61
2023/10/24 10:11:47;;;;;;;3.62;1.05;;;12.50;99.90;;;;;;4410470;32;20144;-61
2023/10/24 10:14:32;;;;;;;2.25;0.90;;;12.50;99.90;;;;;;4406239;32;20177;-62
2023/10/24 10:17:15;;;;;;;0.70;0.65;;;12.50;99.90;;;;;;4402978;32;20181;-62
2023/10/24 10:20:10;;;;;;;1.27;1.15;;;12.50;99.90;;;;;;4407304;32;20660;-61
2023/10/24 10:22:57;;;;;;;8.77;2.22;;;12.60;99.90;;;;;;4408254;32;20065;-61
2023/10/24 10:25:47;;;;;;;0.70;0.70;;;12.60;99.90;;;;;;4408087;32;20082;-61
2023/10/24 10:28:35;;;;;;;1.48;1.20;;;12.60;99.90;;;;;;4406192;32;20423;-61
2023/10/24 10:31:40;;;;;;;1.25;1.15;;;12.70;99.90;;;;;;4407598;32;20426;-61
2023/10/24 10:34:06;;;;;;;3.87;1.42;;;12.80;99.90;;;;;;4395235;32;20101;-62
2023/10/24 10:36:31;;;;;;;0.80;0.80;;;12.80;99.90;;;;;;4401509;32;20455;-61
2023/10/24 10:39:03;;;;;;;0.70;0.70;;;12.70;99.90;;;;;;4403759;32;20106;-63
2023/10/24 10:41:32;;;;;;;1.10;1.02;;;12.70;99.90;;;;;;4406434;32;20085;-62
2023/10/24 10:43:59;;;;;;;0.80;0.80;;;12.60;99.90;;;;;;4408823;32;20384;-62
2023/10/24 10:46:29;;;;;;;2.22;1.20;;;12.70;99.90;;;;;;4408563;32;20434;-62
2023/10/24 10:48:57;;;;;;;1.02;0.98;;;12.60;99.90;;;;;;4402119;32;20083;-62
2023/10/24 10:51:29;;;;;;;0.77;0.65;;;12.70;99.90;;;;;;4396959;32;20503;-60
2023/10/24 10:54:09;;;;;;;9.52;0.93;;;12.80;99.90;;;;;;4406887;32;20089;-63
2023/10/24 10:56:37;;;;;;;1.83;0.77;;;12.90;99.90;;;;;;4405437;32;20162;-62
2023/10/24 10:59:28;;;;;;;0.60;0.60;;;12.90;99.90;;;;;;4401799;32;20097;-62
2023/10/24 11:02:12;;;;;;;1.75;0.90;;;12.90;99.90;;;;;;4406603;32;20174;-61
2023/10/24 11:04:38;;;;;;;2.22;1.35;;;13.00;99.90;;;;;;4407365;32;20097;-62
2023/10/24 11:07:04;;;;;;;1.65;1.37;;;13.10;99.90;;;;;;4404247;32;21593;-63
2023/10/24 11:09:35;;;;;;;0.82;0.82;;;13.10;99.90;;;;;;4404912;32;20097;-61
2023/10/24 11:12:22;;;;;;;0.60;0.60;;;13.30;99.90;;;;;;4407144;32;20144;-61
2023/10/24 11:15:10;;;;;;;1.42;0.90;;;13.30;99.90;;;;;;4404028;32;20081;-61
2023/10/24 11:17:36;;;;;;;5.47;1.95;;;13.40;99.90;;;;;;4400483;32;20151;-61
2023/10/24 11:20:11;;;;;;;0.80;0.80;;;13.40;99.90;;;;;;4404357;32;20421;-61
2023/10/24 11:22:38;;;;;;;1.50;0.95;;;13.40;99.90;;;;;;4408861;32;20561;-61
2023/10/24 11:25:11;;;;;;;2.37;1.35;;;13.30;99.90;;;;;;4405133;32;20090;-61
2023/10/24 11:27:38;;;;;;;7.22;1.52;;;13.30;99.90;;;;;;4405782;32;20526;-61
2023/10/24 11:30:05;;;;;;;1.62;1.23;;;13.30;99.90;;;;;;4405301;32;20061;-61
2023/10/24 11:32:30;;;;;;;3.72;0.62;;;13.40;99.90;;;;;;4406167;32;20097;-61
2023/10/24 11:34:55;;;;;;;1.23;1.05;;;13.40;99.90;;;;;;4403922;32;20085;-62
2023/10/24 11:37:21;;;;;;;0.70;0.70;;;13.40;99.90;;;;;;4397042;32;20065;-62
2023/10/24 11:39:48;;;;;;;1.48;0.77;;;13.50;99.90;;;;;;4402924;32;20082;-61
2023/10/24 11:42:13;;;;;;;0.62;0.57;;;13.50;99.90;;;;;;4407623;32;20069;-61
2023/10/24 11:44:39;;;;;;;0.62;0.62;;;13.50;99.90;;;;;;4406768;32;20160;-61
2023/10/24 11:47:05;;;;;;;1.27;1.15;;;13.50;99.90;;;;;;4401438;32;20118;-61
2023/10/24 11:49:32;;;;;;;21.83;1.70;;;13.50;99.90;;;;;;4404197;32;87708;-61
2023/10/24 11:51:58;;;;;;;1.12;0.98;;;13.50;99.90;;;;;;4406103;32;20093;-61
2023/10/24 11:54:25;;;;;;;0.68;0.68;;;13.60;99.90;;;;;;4406006;32;20097;-61
2023/10/24 11:56:51;;;;;;;0.88;0.88;;;13.60;99.90;;;;;;4396655;32;20514;-62
2023/10/24 11:59:17;;;;;;;1.08;0.98;;;13.60;99.90;;;;;;4400699;32;20152;-61
2023/10/24 12:04:11;;;;;;;0.65;0.65;;;13.50;99.90;;;;;;4403098;32;20081;-61
2023/10/24 12:06:37;;;;;;;12.70;1.30;;;13.50;99.90;;;;;;4405482;32;20138;-61
2023/10/24 12:09:02;;;;;;;0.80;0.80;;;13.40;99.90;;;;;;4400842;32;20485;-61
2023/10/24 12:11:28;;;;;;;1.00;0.80;;;13.40;99.90;;;;;;4405159;32;20061;-61
2023/10/24 12:13:55;;;;;;;0.70;0.70;;;13.40;99.90;;;;;;4403307;32;20172;-61
2023/10/24 12:16:20;;;;;;;0.82;0.82;;;13.30;99.90;;;;;;4404457;32;20194;-61
2023/10/24 12:18:46;;;;;;;0.95;0.88;;;13.30;99.90;;;;;;4400355;32;20109;-62
2023/10/24 12:21:12;;;;;;;4.30;1.58;;;13.20;99.90;;;;;;4404788;32;20165;-61
2023/10/24 12:23:38;;;;;;;0.70;0.70;;;13.20;99.90;;;;;;4392877;32;20057;-61
2023/10/24 12:26:04;;;;;;;0.60;0.60;;;13.20;99.90;;;;;;4407120;32;20112;-61
2023/10/24 12:28:32;;;;;;;2.20;1.60;;;13.10;99.90;;;;;;4403297;32;20827;-61
2023/10/24 12:30:58;;;;;;;4.37;1.70;;;13.20;99.90;;;;;;4403749;32;20073;-61
2023/10/24 12:33:25;;;;;;;0.82;0.82;;;13.20;99.90;;;;;;4405535;32;21311;-62
2023/10/24 12:35:51;;;;;;;1.77;1.33;;;13.20;99.90;;;;;;4402539;32;20461;-61
2023/10/24 12:38:17;;;;;;;15.82;2.28;;;13.20;99.90;;;;;;4392919;32;20081;-62
2023/10/24 12:40:44;;;;;;;0.77;0.77;;;13.20;99.90;;;;;;4406222;32;20097;-62
2023/10/24 12:43:09;;;;;;;0.68;0.68;;;13.20;99.90;;;;;;4405132;32;20074;-61
2023/10/24 12:45:35;;;;;;;0.88;0.82;;;13.20;99.90;;;;;;4403720;32;20128;-62